This is the latest recevied weather packets stored in our database for station/object VK5GR-12. If no packets are shown the sender has not sent any weather packets the latest 1 day(s).
| Time | Temp. | Humidity | Pressure | Rain* | Wind** | Luminosity | Snow |
|---|---|---|---|---|---|---|---|
| 1778045904 | 17.78° C | 73% | 1022 hPa | 0 mm | 0.89 m/s, 303° | 201 W/m² | - |
| 1778044999 | 16.67° C | 80% | 1021.6 hPa | 0 mm | 0 m/s | 84 W/m² | - |
| 1778044096 | 16.67° C | 83% | 1021.8 hPa | 0 mm | 0 m/s | 62 W/m² | - |
| 1778043192 | 16.67° C | 82% | 1021.9 hPa | 0 mm | 0 m/s | 167 W/m² | - |
| 1778042290 | 16.11° C | 87% | 1021.8 hPa | 0 mm | 0.45 m/s, 311° | 317 W/m² | - |
| 1778041390 | 16.11° C | 89% | 1021.6 hPa | 0 mm | 0 m/s | 155 W/m² | - |
| 1778040488 | 16.11° C | 91% | 1021.8 hPa | 0 mm | 0.89 m/s, 285° | 229 W/m² | - |
| 1778039585 | 15.56° C | 94% | 1021.9 hPa | 0 mm | 0 m/s | 399 W/m² | - |
| 1778038682 | 15.56° C | 93% | 1021.9 hPa | 1.78 mm | 0.45 m/s, 309° | 206 W/m² | - |
| 1778037778 | 15.56° C | 92% | 1022 hPa | 1.27 mm | 0.45 m/s, 292° | 236 W/m² | - |
| 1778036876 | 16.11° C | 86% | 1022.1 hPa | 0 mm | 1.79 m/s, 331° | 147 W/m² | - |
| 1778035973 | 16.67° C | 79% | 1022.2 hPa | 0 mm | 0.89 m/s, 291° | 112 W/m² | - |
| 1778035068 | 16.67° C | 77% | 1022.6 hPa | 0 mm | 0.89 m/s, 344° | 251 W/m² | - |
| 1778034166 | 16.67° C | 77% | 1022.9 hPa | 0 mm | 0.89 m/s, 307° | 90 W/m² | - |
| 1778033262 | 17.22° C | 74% | 1023 hPa | 0 mm | 0.89 m/s, 318° | 124 W/m² | - |
| 1778032373 | 17.22° C | 75% | 1023 hPa | 0 mm | 0 m/s | 223 W/m² | - |
| 1778031457 | 16.67° C | 82% | 1023.4 hPa | 0 mm | 0.89 m/s, 282° | 137 W/m² | - |
| 1778030553 | 16.67° C | 82% | 1023.3 hPa | 0 mm | 0.89 m/s, 354° | 137 W/m² | - |
| 1778029651 | 18.33° C | 78% | 1023.3 hPa | 0 mm | 0 m/s | 132 W/m² | - |
| 1778028747 | 16.67° C | 83% | 1023.5 hPa | 0 mm | 0.45 m/s, 296° | 253 W/m² | - |
| 1778027842 | 15° C | 90% | 1023.5 hPa | 0 mm | 0 m/s | 429 W/m² | - |
| 1778026937 | 15° C | 89% | 1023.7 hPa | 0 mm | 1.34 m/s, 68° | 136 W/m² | - |
| 1778026033 | 15° C | 88% | 1023.5 hPa | 0 mm | 0 m/s | 69 W/m² | - |
| 1778025132 | 15° C | 88% | 1023.5 hPa | 0 mm | 0 m/s | 118 W/m² | - |
| 1778024228 | 14.44° C | 88% | 1023.6 hPa | 0 mm | 0 m/s | 107 W/m² | - |
* Rain latest hour (hover to see other rain measurements)
** Current wind speed in m/s (hover to see current wind gust speed)